createdAt,value
2022-08-05T00:00:54.992Z,980.04
2022-08-05T00:01:54.958Z,979.91
2022-08-05T00:02:55.973Z,979.84
2022-08-05T00:03:54.861Z,979.77
2022-08-05T00:04:55.492Z,979.74
2022-08-05T00:06:06.702Z,979.77
2022-08-05T00:06:55.819Z,979.73
2022-08-05T00:08:00.213Z,979.73
2022-08-05T00:08:56.640Z,979.75
2022-08-05T00:09:54.860Z,979.69
2022-08-05T00:10:54.791Z,979.66
2022-08-05T00:11:56.171Z,979.67
2022-08-05T00:12:57.041Z,979.63
2022-08-05T00:13:54.743Z,979.67
2022-08-05T00:14:54.733Z,979.75
2022-08-05T00:15:58.001Z,979.84
2022-08-05T00:16:54.822Z,980.02
2022-08-05T00:17:54.823Z,980.12
2022-08-05T00:18:54.705Z,980.19
2022-08-05T00:20:02.646Z,980.24
2022-08-05T00:20:55.734Z,980.18
2022-08-05T00:21:54.686Z,980.06
2022-08-05T00:22:59.569Z,980.02
2022-08-05T00:24:10.478Z,980.06
2022-08-05T00:24:55.624Z,979.97
2022-08-05T00:25:54.614Z,979.87
2022-08-05T00:26:54.589Z,979.83
2022-08-05T00:27:54.622Z,979.83
2022-08-05T00:28:54.588Z,979.73
2022-08-05T00:29:54.576Z,979.50
2022-08-05T00:30:54.544Z,979.16
2022-08-05T00:32:12.410Z,978.85
2022-08-05T00:32:55.515Z,978.67
2022-08-05T00:34:55.133Z,978.64
2022-08-05T00:35:06.321Z,978.59
2022-08-05T00:36:15.837Z,978.82
2022-08-05T00:37:13.074Z,978.92
2022-08-05T00:37:55.543Z,979.05
2022-08-05T00:38:54.591Z,979.08
2022-08-05T00:39:57.952Z,979.11
2022-08-05T00:40:54.831Z,979.13
2022-08-05T00:41:55.794Z,979.18
2022-08-05T00:42:54.417Z,979.14
2022-08-05T00:43:54.415Z,979.17
2022-08-05T00:44:54.484Z,979.22
2022-08-05T00:45:54.575Z,979.20
2022-08-05T00:47:02.052Z,979.22
2022-08-05T00:47:57.699Z,979.22
2022-08-05T00:48:55.339Z,979.18
2022-08-05T00:49:54.336Z,979.18
2022-08-05T00:50:54.368Z,979.10
2022-08-05T00:51:54.345Z,979.06
2022-08-05T00:52:55.283Z,979.00
2022-08-05T00:54:02.086Z,978.94
2022-08-05T00:54:55.995Z,979.04
2022-08-05T00:55:54.451Z,979.02
2022-08-05T00:56:54.476Z,979.08
2022-08-05T00:57:55.515Z,979.07
2022-08-05T00:58:54.334Z,979.04
2022-08-05T00:59:54.272Z,979.05
2022-08-05T01:00:54.459Z,979.09
2022-08-05T01:01:54.265Z,979.09
2022-08-05T01:02:54.399Z,979.12
2022-08-05T01:03:54.301Z,979.14
2022-08-05T01:04:54.210Z,979.07
2022-08-05T01:05:54.854Z,979.08
2022-08-05T01:06:54.956Z,979.04
2022-08-05T01:08:31.645Z,978.99
2022-08-05T01:08:55.154Z,978.98
2022-08-05T01:09:55.693Z,978.98
2022-08-05T01:10:54.107Z,978.95
2022-08-05T01:11:54.184Z,978.92
2022-08-05T01:13:05.314Z,978.92
2022-08-05T01:13:57.720Z,978.92
2022-08-05T01:14:54.196Z,978.92
2022-08-05T01:15:54.210Z,978.95
2022-08-05T01:16:54.038Z,979.01
2022-08-05T01:17:54.068Z,979.00
2022-08-05T01:18:56.555Z,979.02
2022-08-05T01:20:01.964Z,979.00
2022-08-05T01:20:55.031Z,978.98
2022-08-05T01:21:54.209Z,979.01
2022-08-05T01:22:54.101Z,979.01
2022-08-05T01:23:54.027Z,979.04
2022-08-05T01:24:53.998Z,978.99
2022-08-05T01:25:54.140Z,978.94
2022-08-05T01:26:53.959Z,978.92
2022-08-05T01:27:55.360Z,978.92
2022-08-05T01:28:53.918Z,978.95
2022-08-05T01:29:54.662Z,978.94
2022-08-05T01:30:55.181Z,978.97
2022-08-05T01:31:53.942Z,978.96
2022-08-05T01:32:54.868Z,978.95
2022-08-05T01:33:53.917Z,978.91
2022-08-05T01:34:53.972Z,978.87
2022-08-05T01:35:53.901Z,978.84
2022-08-05T01:36:53.910Z,978.84
2022-08-05T01:37:54.666Z,978.82
2022-08-05T01:38:53.843Z,978.91
2022-08-05T01:39:53.915Z,978.92
2022-08-05T01:40:53.791Z,978.97
2022-08-05T01:41:53.761Z,979.00
2022-08-05T01:42:53.755Z,979.05
2022-08-05T01:43:53.794Z,978.97
2022-08-05T01:44:54.655Z,978.89
2022-08-05T01:45:56.566Z,978.84
2022-08-05T01:46:53.835Z,978.82
2022-08-05T01:47:54.533Z,978.79
2022-08-05T01:48:53.690Z,978.80
2022-08-05T01:50:02.078Z,978.82
2022-08-05T01:50:54.680Z,978.87
2022-08-05T01:51:53.670Z,978.88
2022-08-05T01:52:53.651Z,978.86
2022-08-05T01:53:57.467Z,978.84
2022-08-05T01:54:54.629Z,978.88
2022-08-05T01:55:53.602Z,978.87
2022-08-05T01:58:12.247Z,978.84
2022-08-05T01:58:12.974Z,978.85
2022-08-05T01:58:54.571Z,978.82
2022-08-05T01:59:53.562Z,978.85
2022-08-05T02:00:53.663Z,978.80
2022-08-05T02:01:54.828Z,978.85
2022-08-05T02:02:55.014Z,978.75
2022-08-05T02:03:53.523Z,978.70
2022-08-05T02:04:53.513Z,978.69
2022-08-05T02:05:53.568Z,978.71
2022-08-05T02:06:54.492Z,978.74
2022-08-05T02:07:56.266Z,978.74
2022-08-05T02:08:58.254Z,978.72
2022-08-05T02:09:53.460Z,978.71
2022-08-05T02:10:53.475Z,978.72
2022-08-05T02:11:53.422Z,978.70
2022-08-05T02:12:53.423Z,978.69
2022-08-05T02:13:54.107Z,978.71
2022-08-05T02:14:53.413Z,978.67
2022-08-05T02:15:53.386Z,978.66
2022-08-05T02:16:53.530Z,978.60
2022-08-05T02:18:28.825Z,978.59
2022-08-05T02:18:54.363Z,978.60
2022-08-05T02:19:53.335Z,978.60
2022-08-05T02:20:53.354Z,978.61
2022-08-05T02:21:53.345Z,978.58
2022-08-05T02:22:53.314Z,978.58
2022-08-05T02:23:53.293Z,978.61
2022-08-05T02:24:53.303Z,978.63
2022-08-05T02:25:53.283Z,978.62
2022-08-05T02:26:54.884Z,978.66
2022-08-05T02:27:59.289Z,978.69
2022-08-05T02:28:54.253Z,978.73
2022-08-05T02:29:59.408Z,978.67
2022-08-05T02:30:56.553Z,978.67
2022-08-05T02:31:53.205Z,978.65
2022-08-05T02:32:53.214Z,978.65
2022-08-05T02:33:57.399Z,978.67
2022-08-05T02:34:54.903Z,978.66
2022-08-05T02:35:56.213Z,978.68
2022-08-05T02:36:54.164Z,978.69
2022-08-05T02:37:54.111Z,978.68
2022-08-05T02:38:54.010Z,978.71
2022-08-05T02:39:53.165Z,978.71
2022-08-05T02:40:54.098Z,978.75
2022-08-05T02:42:00.916Z,978.78
2022-08-05T02:42:54.333Z,978.77
2022-08-05T02:44:06.524Z,978.86
2022-08-05T02:44:54.074Z,978.83
2022-08-05T02:45:54.001Z,978.90
2022-08-05T02:46:58.892Z,978.87
2022-08-05T02:48:11.486Z,978.93
2022-08-05T02:48:54.035Z,978.97
2022-08-05T02:49:53.025Z,979.02
2022-08-05T02:50:53.016Z,978.99
2022-08-05T02:52:03.946Z,979.05
2022-08-05T02:52:54.029Z,979.12
2022-08-05T02:53:54.698Z,979.18
2022-08-05T02:54:52.975Z,979.18
2022-08-05T02:55:59.532Z,979.22
2022-08-05T02:56:53.947Z,979.21
2022-08-05T02:58:12.348Z,979.26
2022-08-05T02:58:53.925Z,979.28
2022-08-05T02:59:52.945Z,979.34
2022-08-05T03:00:53.695Z,979.33
2022-08-05T03:01:53.439Z,979.36
2022-08-05T03:02:52.886Z,979.37
2022-08-05T03:04:04.395Z,979.37
2022-08-05T03:04:53.866Z,979.38
2022-08-05T03:06:55.670Z,979.37
2022-08-05T03:06:59.419Z,979.43
2022-08-05T03:08:06.828Z,979.48
2022-08-05T03:08:53.807Z,979.49
2022-08-05T03:09:52.828Z,979.51
2022-08-05T03:11:02.333Z,979.55
2022-08-05T03:11:57.851Z,979.57
2022-08-05T03:12:52.766Z,979.67
2022-08-05T03:14:03.053Z,979.79
2022-08-05T03:14:53.746Z,979.83
2022-08-05T03:15:52.717Z,979.93
2022-08-05T03:16:53.521Z,980.01
2022-08-05T03:17:53.987Z,980.11
2022-08-05T03:18:52.708Z,980.21
2022-08-05T03:19:52.688Z,980.34
2022-08-05T03:20:52.707Z,980.52
2022-08-05T03:21:53.506Z,980.51
2022-08-05T03:22:57.247Z,980.62
2022-08-05T03:23:52.627Z,980.57
2022-08-05T03:24:52.643Z,980.66
2022-08-05T03:26:05.005Z,980.63
2022-08-05T03:26:53.618Z,980.61
2022-08-05T03:27:58.931Z,980.59
2022-08-05T03:28:53.595Z,980.59
2022-08-05T03:30:07.339Z,980.52
2022-08-05T03:30:53.569Z,980.59
2022-08-05T03:31:56.978Z,980.55
2022-08-05T03:32:53.638Z,980.56
2022-08-05T03:33:52.985Z,980.51
2022-08-05T03:34:52.528Z,980.53
2022-08-05T03:35:52.500Z,980.58
2022-08-05T03:36:52.869Z,980.56
2022-08-05T03:37:53.521Z,980.55
2022-08-05T03:38:53.383Z,980.56
2022-08-05T03:39:58.674Z,980.54
2022-08-05T03:40:53.506Z,980.57
2022-08-05T03:41:52.618Z,980.59
2022-08-05T03:42:53.240Z,980.59
2022-08-05T03:44:09.121Z,980.61
2022-08-05T03:44:53.417Z,980.62
2022-08-05T03:45:57.216Z,980.64
2022-08-05T03:46:53.389Z,980.65
2022-08-05T03:47:56.833Z,980.58
2022-08-05T03:48:53.377Z,980.57
2022-08-05T03:49:52.886Z,980.58
2022-08-05T03:50:52.401Z,980.57
2022-08-05T03:52:48.288Z,980.58
2022-08-05T03:55:51.936Z,980.70
2022-08-05T03:55:53.789Z,980.61
2022-08-05T03:56:00.949Z,980.66
2022-08-05T03:56:05.970Z,980.78
2022-08-05T03:56:53.280Z,980.82
2022-08-05T03:57:52.268Z,980.78
2022-08-05T03:58:52.261Z,980.83
2022-08-05T03:59:55.030Z,980.77
2022-08-05T04:00:52.572Z,980.72
2022-08-05T04:01:52.357Z,980.59
2022-08-05T04:02:58.678Z,980.61
2022-08-05T04:04:09.409Z,980.56
2022-08-05T04:04:53.600Z,980.57
2022-08-05T04:05:52.251Z,980.53
2022-08-05T04:06:52.185Z,980.56
2022-08-05T04:07:58.017Z,980.52
2022-08-05T04:08:53.251Z,980.52
2022-08-05T04:09:53.503Z,980.47
2022-08-05T04:10:52.131Z,980.51
2022-08-05T04:11:52.514Z,980.55
2022-08-05T04:12:52.111Z,980.59
2022-08-05T04:13:53.583Z,980.57
2022-08-05T04:14:52.091Z,980.54
2022-08-05T04:16:03.393Z,980.56
2022-08-05T04:16:53.061Z,980.59
2022-08-05T04:17:56.289Z,980.62
2022-08-05T04:18:53.935Z,980.60
2022-08-05T04:19:54.561Z,980.61
2022-08-05T04:20:53.024Z,980.60
2022-08-05T04:22:08.320Z,980.61
2022-08-05T04:22:53.002Z,980.59
2022-08-05T04:23:57.137Z,980.59
2022-08-05T04:24:53.195Z,980.55
2022-08-05T04:26:00.497Z,980.54
2022-08-05T04:26:52.953Z,980.51
2022-08-05T04:27:57.227Z,980.54
2022-08-05T04:28:52.935Z,980.45
2022-08-05T04:29:51.904Z,980.48
2022-08-05T04:30:51.922Z,980.53
2022-08-05T04:31:51.903Z,980.52
2022-08-05T04:32:51.903Z,980.56
2022-08-05T04:34:18.975Z,980.52
2022-08-05T04:34:52.872Z,980.56
2022-08-05T04:36:09.500Z,980.50
2022-08-05T04:36:52.852Z,980.52
2022-08-05T04:38:02.829Z,980.51
2022-08-05T04:38:52.843Z,980.53
2022-08-05T04:39:52.905Z,980.50
2022-08-05T04:40:51.803Z,980.45
2022-08-05T04:41:52.704Z,980.44
2022-08-05T04:42:51.783Z,980.43
2022-08-05T04:43:52.128Z,980.39
2022-08-05T04:44:51.763Z,980.34
2022-08-05T04:45:54.953Z,980.33
2022-08-05T04:46:51.873Z,980.30
2022-08-05T04:47:51.714Z,980.26
2022-08-05T04:48:51.761Z,980.21
2022-08-05T04:50:02.582Z,980.20
2022-08-05T04:51:03.593Z,980.16
2022-08-05T04:52:00.460Z,980.15
2022-08-05T04:52:52.691Z,980.08
2022-08-05T04:53:51.653Z,980.04
2022-08-05T04:54:51.645Z,980.01
2022-08-05T04:56:14.812Z,979.97
2022-08-05T04:56:56.264Z,979.93
2022-08-05T04:57:54.234Z,979.89
2022-08-05T04:58:51.596Z,979.78
2022-08-05T04:59:51.576Z,979.82
2022-08-05T05:00:51.597Z,979.74
2022-08-05T05:02:35.012Z,979.71
2022-08-05T05:02:52.605Z,979.70
2022-08-05T05:03:51.976Z,979.64
2022-08-05T05:04:51.599Z,979.62
2022-08-05T05:06:39.351Z,979.60
2022-08-05T05:06:57.686Z,979.49
2022-08-05T05:07:52.879Z,979.41
2022-08-05T05:08:51.515Z,979.35
2022-08-05T05:09:51.466Z,979.32
2022-08-05T05:10:56.205Z,979.33
2022-08-05T05:11:53.068Z,979.34
2022-08-05T05:12:51.455Z,979.32
2022-08-05T05:13:51.436Z,979.27
2022-08-05T05:14:51.484Z,979.22
2022-08-05T05:16:00.508Z,979.16
2022-08-05T05:16:52.397Z,979.03
2022-08-05T05:17:56.764Z,978.90
2022-08-05T05:19:16.402Z,978.78
2022-08-05T05:19:52.357Z,978.74
2022-08-05T05:20:51.397Z,978.68
2022-08-05T05:21:51.337Z,978.65
2022-08-05T05:22:51.337Z,978.63
2022-08-05T05:24:04.003Z,978.58
2022-08-05T05:24:57.842Z,978.60
2022-08-05T05:25:52.296Z,978.62
2022-08-05T05:26:51.941Z,978.69
2022-08-05T05:27:54.018Z,978.76
2022-08-05T05:28:51.284Z,978.92
2022-08-05T05:30:03.868Z,978.99
2022-08-05T05:30:52.409Z,979.10
2022-08-05T05:31:51.238Z,979.14
2022-08-05T05:32:51.228Z,979.20
2022-08-05T05:33:59.632Z,979.27
2022-08-05T05:34:52.454Z,979.33
2022-08-05T05:35:51.198Z,979.30
2022-08-05T05:36:51.370Z,979.34
2022-08-05T05:38:00.214Z,979.35
2022-08-05T05:38:52.177Z,979.41
2022-08-05T05:39:51.175Z,979.47
2022-08-05T05:40:51.861Z,979.51
2022-08-05T05:41:54.300Z,979.59
2022-08-05T05:42:51.181Z,979.65
2022-08-05T05:43:57.549Z,979.59
2022-08-05T05:44:52.411Z,979.61
2022-08-05T05:45:52.120Z,979.59
2022-08-05T05:46:51.212Z,979.67
2022-08-05T05:48:06.464Z,979.73
2022-08-05T05:48:52.369Z,979.67
2022-08-05T05:49:56.977Z,979.73
2022-08-05T05:50:52.022Z,979.77
2022-08-05T05:51:51.176Z,979.79
2022-08-05T05:52:51.010Z,979.79
2022-08-05T05:53:58.122Z,979.81
2022-08-05T05:54:51.971Z,979.83
2022-08-05T05:56:00.656Z,979.88
2022-08-05T05:56:51.940Z,979.90
2022-08-05T05:57:52.661Z,979.88
2022-08-05T05:58:50.940Z,979.94
2022-08-05T05:59:50.931Z,979.98
2022-08-05T06:00:50.910Z,980.01
2022-08-05T06:01:57.039Z,980.08
2022-08-05T06:02:51.880Z,980.05
2022-08-05T06:04:00.584Z,980.05
2022-08-05T06:04:51.894Z,980.03
2022-08-05T06:05:54.135Z,980.03
2022-08-05T06:06:50.889Z,980.04
2022-08-05T06:08:01.254Z,979.99
2022-08-05T06:08:51.810Z,979.94
2022-08-05T06:10:00.917Z,979.95
2022-08-05T06:10:52.788Z,979.92
2022-08-05T06:12:02.023Z,979.92
2022-08-05T06:12:51.762Z,979.88
2022-08-05T06:13:54.012Z,979.86
2022-08-05T06:14:51.832Z,979.83
2022-08-05T06:16:31.451Z,979.88
2022-08-05T06:16:51.801Z,979.89
2022-08-05T06:17:53.638Z,979.85
2022-08-05T06:18:50.703Z,979.85
2022-08-05T06:19:56.733Z,979.87
2022-08-05T06:20:54.189Z,979.91
2022-08-05T06:21:50.690Z,979.96
2022-08-05T06:22:50.661Z,980.00
2022-08-05T06:23:50.661Z,979.98
2022-08-05T06:24:50.641Z,979.97
2022-08-05T06:26:12.495Z,980.02
2022-08-05T06:26:53.306Z,980.06
2022-08-05T06:28:12.714Z,980.08
2022-08-05T06:28:51.622Z,980.06
2022-08-05T06:30:04.323Z,980.06
2022-08-05T06:30:51.581Z,979.99
2022-08-05T06:31:50.733Z,979.98
2022-08-05T06:32:50.943Z,980.04
2022-08-05T06:34:07.432Z,980.04
2022-08-05T06:34:53.325Z,980.09
2022-08-05T06:36:07.829Z,980.07
2022-08-05T06:36:57.023Z,980.04
2022-08-05T06:37:58.382Z,980.06
2022-08-05T06:38:51.516Z,980.06
2022-08-05T06:39:50.482Z,980.05
2022-08-05T06:40:50.503Z,980.10
2022-08-05T06:41:50.584Z,980.14
2022-08-05T06:42:52.185Z,980.14
2022-08-05T06:43:59.266Z,980.14
2022-08-05T06:44:51.424Z,980.09
2022-08-05T06:46:06.753Z,980.01
2022-08-05T06:46:51.395Z,979.97
2022-08-05T06:48:36.208Z,979.95
2022-08-05T06:48:56.568Z,979.97
2022-08-05T06:50:00.657Z,980.03
2022-08-05T06:50:51.345Z,980.09
2022-08-05T06:51:50.454Z,980.07
2022-08-05T06:53:03.539Z,980.06
2022-08-05T06:53:53.349Z,980.09
2022-08-05T06:54:52.158Z,980.12
2022-08-05T06:55:50.371Z,980.13
2022-08-05T06:56:54.671Z,980.12
2022-08-05T06:58:03.003Z,980.02
2022-08-05T06:58:51.255Z,980.00
2022-08-05T06:59:55.081Z,979.98
2022-08-05T07:00:51.411Z,980.03
2022-08-05T07:01:52.766Z,980.10
2022-08-05T07:02:53.639Z,980.21
2022-08-05T07:03:50.284Z,980.25
2022-08-05T07:04:50.205Z,980.30
2022-08-05T07:05:50.215Z,980.31
2022-08-05T07:06:50.559Z,980.31
2022-08-05T07:07:50.327Z,980.36
2022-08-05T07:08:51.903Z,980.36
2022-08-05T07:09:58.341Z,980.35
2022-08-05T07:10:52.779Z,980.34
2022-08-05T07:11:51.725Z,980.32
2022-08-05T07:12:50.106Z,980.23
2022-08-05T07:13:58.382Z,980.22
2022-08-05T07:14:51.079Z,980.25
2022-08-05T07:16:02.007Z,980.25
2022-08-05T07:18:01.237Z,980.27
2022-08-05T07:18:01.835Z,980.27
2022-08-05T07:18:51.040Z,980.24
2022-08-05T07:20:32.301Z,980.23
2022-08-05T07:20:51.046Z,980.22
2022-08-05T07:22:00.421Z,980.22
2022-08-05T07:22:51.240Z,980.21
2022-08-05T07:23:52.193Z,980.21
2022-08-05T07:24:52.427Z,980.22
2022-08-05T07:25:56.022Z,980.23
2022-08-05T07:26:50.988Z,980.21
2022-08-05T07:27:58.852Z,980.21
2022-08-05T07:28:50.938Z,980.24
2022-08-05T07:30:27.196Z,980.23
2022-08-05T07:30:52.955Z,980.31
2022-08-05T07:31:55.072Z,980.30
2022-08-05T07:32:53.435Z,980.38
2022-08-05T07:33:49.992Z,980.33
2022-08-05T07:34:50.692Z,980.35
2022-08-05T07:36:01.877Z,980.36
2022-08-05T07:36:51.347Z,980.36
2022-08-05T07:37:50.039Z,980.38
2022-08-05T07:38:49.828Z,980.36
2022-08-05T07:40:25.952Z,980.44
2022-08-05T07:40:55.715Z,980.43
2022-08-05T07:42:13.331Z,980.43
2022-08-05T07:42:50.789Z,980.46
2022-08-05T07:43:49.787Z,980.44
2022-08-05T07:44:50.501Z,980.42
2022-08-05T07:45:56.993Z,980.42
2022-08-05T07:46:50.732Z,980.44
2022-08-05T07:47:50.453Z,980.49
2022-08-05T07:49:02.591Z,980.59
2022-08-05T07:49:54.211Z,980.62
2022-08-05T07:50:50.426Z,980.64
2022-08-05T07:51:54.336Z,980.65
2022-08-05T07:52:50.680Z,980.66
2022-08-05T07:53:50.548Z,980.68
2022-08-05T07:54:49.661Z,980.67
2022-08-05T07:56:05.287Z,980.66
2022-08-05T07:57:14.552Z,980.69
2022-08-05T07:57:58.833Z,980.73
2022-08-05T07:58:57.786Z,980.75
2022-08-05T07:59:50.620Z,980.70
2022-08-05T08:00:50.509Z,980.68
2022-08-05T08:01:51.981Z,980.69
2022-08-05T08:03:15.150Z,980.68
2022-08-05T08:03:51.421Z,980.63
2022-08-05T08:04:49.907Z,980.66
2022-08-05T08:05:50.065Z,980.66
2022-08-05T08:06:49.583Z,980.80
2022-08-05T08:07:59.053Z,980.80
2022-08-05T08:08:50.792Z,980.86
2022-08-05T08:09:49.564Z,980.81
2022-08-05T08:10:49.579Z,980.82
2022-08-05T08:11:54.353Z,980.82
2022-08-05T08:12:51.402Z,980.81
2022-08-05T08:14:00.825Z,980.82
2022-08-05T08:14:50.453Z,980.84
2022-08-05T08:16:34.643Z,980.85
2022-08-05T08:16:53.438Z,980.83
2022-08-05T08:17:52.372Z,980.84
2022-08-05T08:18:50.200Z,980.85
2022-08-05T08:20:10.450Z,980.87
2022-08-05T08:21:03.094Z,980.96
2022-08-05T08:21:50.417Z,980.97
2022-08-05T08:22:49.396Z,980.98
2022-08-05T08:24:03.779Z,980.97
2022-08-05T08:24:51.813Z,981.03
2022-08-05T08:26:00.611Z,981.03
2022-08-05T08:26:50.347Z,981.06
2022-08-05T08:27:51.223Z,981.10
2022-08-05T08:28:55.172Z,981.09
2022-08-05T08:30:06.016Z,981.09
2022-08-05T08:30:52.224Z,981.09
2022-08-05T08:31:49.277Z,981.09
2022-08-05T08:32:49.352Z,981.11
2022-08-05T08:33:51.767Z,981.12
2022-08-05T08:34:49.240Z,981.10
2022-08-05T08:35:52.462Z,981.18
2022-08-05T08:36:54.839Z,981.20
2022-08-05T08:37:53.582Z,981.18
2022-08-05T08:38:53.260Z,981.17
2022-08-05T08:39:49.652Z,981.21
2022-08-05T08:40:51.784Z,981.22
2022-08-05T08:41:50.790Z,981.22
2022-08-05T08:42:50.649Z,981.19
2022-08-05T08:45:22.306Z,981.21
2022-08-05T08:45:22.401Z,981.23
2022-08-05T08:45:50.245Z,981.22
2022-08-05T08:46:49.095Z,981.22
2022-08-05T08:48:07.113Z,981.26
2022-08-05T08:49:06.121Z,981.34
2022-08-05T08:50:05.840Z,981.31
2022-08-05T08:51:03.599Z,981.35
2022-08-05T08:52:03.098Z,981.43
2022-08-05T08:52:51.766Z,981.48
2022-08-05T08:53:49.756Z,981.46
2022-08-05T08:54:49.514Z,981.49
2022-08-05T08:56:03.818Z,981.55
2022-08-05T08:56:50.760Z,981.62
2022-08-05T08:57:58.427Z,981.69
2022-08-05T08:58:50.592Z,981.64
2022-08-05T08:59:49.701Z,981.66
2022-08-05T09:00:48.969Z,981.65
2022-08-05T09:01:57.246Z,981.71
2022-08-05T09:02:50.682Z,981.71
2022-08-05T09:03:54.386Z,981.74
2022-08-05T09:05:16.331Z,981.74
2022-08-05T09:06:07.987Z,981.77
2022-08-05T09:06:50.010Z,981.83
2022-08-05T09:07:57.079Z,981.77
2022-08-05T09:08:49.912Z,981.79
2022-08-05T09:09:48.934Z,981.76
2022-08-05T09:10:49.258Z,981.75
2022-08-05T09:11:53.649Z,981.75
2022-08-05T09:12:50.983Z,981.80
2022-08-05T09:14:09.165Z,981.82
2022-08-05T09:14:56.456Z,981.82
2022-08-05T09:15:49.796Z,981.78
2022-08-05T09:16:49.117Z,981.82
2022-08-05T09:17:49.824Z,981.82
2022-08-05T09:18:48.739Z,981.80
2022-08-05T09:20:01.723Z,981.76
2022-08-05T09:20:50.488Z,981.70
2022-08-05T09:22:23.490Z,981.71
2022-08-05T09:22:51.896Z,981.71
2022-08-05T09:23:48.688Z,981.79
2022-08-05T09:24:48.669Z,981.77
2022-08-05T09:26:02.192Z,981.79
2022-08-05T09:26:51.761Z,981.77
2022-08-05T09:28:03.934Z,981.77
2022-08-05T09:28:49.673Z,981.76
2022-08-05T09:29:48.659Z,981.72
2022-08-05T09:30:49.402Z,981.73
2022-08-05T09:32:46.433Z,981.73
2022-08-05T09:32:51.791Z,981.72
2022-08-05T09:33:49.594Z,981.66
2022-08-05T09:34:48.562Z,981.72
2022-08-05T09:35:48.574Z,981.68
2022-08-05T09:36:55.589Z,981.60
2022-08-05T09:38:17.389Z,981.58
2022-08-05T09:38:49.504Z,981.53
2022-08-05T09:39:52.422Z,981.54
2022-08-05T09:40:52.182Z,981.55
2022-08-05T09:41:56.149Z,981.52
2022-08-05T09:42:49.471Z,981.46
2022-08-05T09:43:49.424Z,981.38
2022-08-05T09:44:49.456Z,981.33
2022-08-05T09:46:06.757Z,981.34
2022-08-05T09:46:53.500Z,981.33
2022-08-05T09:47:56.128Z,981.35
2022-08-05T09:49:06.467Z,981.39
2022-08-05T09:50:01.632Z,981.39
2022-08-05T09:50:49.392Z,981.42
2022-08-05T09:51:50.231Z,981.41
2022-08-05T09:52:52.969Z,981.40
2022-08-05T09:53:54.951Z,981.39
2022-08-05T09:54:49.393Z,981.49
2022-08-05T09:55:58.343Z,981.49
2022-08-05T09:56:51.846Z,981.57
2022-08-05T09:57:49.028Z,981.60
2022-08-05T09:58:50.315Z,981.65
2022-08-05T09:59:48.832Z,981.71
2022-08-05T10:00:48.838Z,981.73
2022-08-05T10:01:48.281Z,981.70
2022-08-05T10:02:49.445Z,981.74
2022-08-05T10:03:59.054Z,981.67
2022-08-05T10:04:50.137Z,981.66
2022-08-05T10:05:48.984Z,981.61
2022-08-05T10:06:49.808Z,981.61
2022-08-05T10:08:11.119Z,981.62
2022-08-05T10:08:53.802Z,981.68
2022-08-05T10:09:49.933Z,981.62
2022-08-05T10:10:50.401Z,981.63
2022-08-05T10:11:50.013Z,981.60
2022-08-05T10:12:49.804Z,981.58
2022-08-05T10:13:49.178Z,981.51
2022-08-05T10:14:48.147Z,981.54
2022-08-05T10:15:48.134Z,981.52
2022-08-05T10:16:52.857Z,981.49
2022-08-05T10:17:56.856Z,981.59
2022-08-05T10:18:49.830Z,981.53
2022-08-05T10:20:03.948Z,981.61
2022-08-05T10:20:49.083Z,981.55
2022-08-05T10:21:48.066Z,981.57
2022-08-05T10:22:48.750Z,981.56
2022-08-05T10:24:00.015Z,981.57
2022-08-05T10:24:49.056Z,981.51
2022-08-05T10:25:48.029Z,981.47
2022-08-05T10:26:51.207Z,981.43
2022-08-05T10:28:13.340Z,981.40
2022-08-05T10:28:49.014Z,981.36
2022-08-05T10:30:41.227Z,981.41
2022-08-05T10:32:48.228Z,981.48
2022-08-05T10:32:53.996Z,981.51
2022-08-05T10:33:00.041Z,981.48
2022-08-05T10:33:54.109Z,981.49
2022-08-05T10:34:47.937Z,981.55
2022-08-05T10:35:59.023Z,981.55
2022-08-05T10:36:49.599Z,981.56
2022-08-05T10:37:47.868Z,981.60
2022-08-05T10:38:47.857Z,981.67
2022-08-05T10:40:03.219Z,981.69
2022-08-05T10:40:48.868Z,981.74
2022-08-05T10:41:47.978Z,981.73
2022-08-05T10:42:47.827Z,981.73
2022-08-05T10:43:47.967Z,981.74
2022-08-05T10:44:47.976Z,981.77
2022-08-05T10:45:48.006Z,981.77
2022-08-05T10:46:51.041Z,981.79
2022-08-05T10:48:30.158Z,981.79
2022-08-05T10:48:52.904Z,981.80
2022-08-05T10:50:31.660Z,981.83
2022-08-05T10:50:48.728Z,981.80
2022-08-05T10:51:59.804Z,981.83
2022-08-05T10:52:49.707Z,981.83
2022-08-05T10:53:48.482Z,981.85
2022-08-05T10:54:56.122Z,981.87
2022-08-05T10:56:05.138Z,981.90
2022-08-05T10:56:49.391Z,981.76
2022-08-05T10:57:51.245Z,981.85
2022-08-05T10:58:48.578Z,981.83
2022-08-05T11:00:02.043Z,981.86
2022-08-05T11:00:55.437Z,981.86
2022-08-05T11:01:54.016Z,981.87
2022-08-05T11:02:50.678Z,981.88
2022-08-05T11:03:47.692Z,981.85
2022-08-05T11:04:47.579Z,981.89
2022-08-05T11:05:47.550Z,981.90
2022-08-05T11:06:47.596Z,981.88
2022-08-05T11:08:01.330Z,981.90
2022-08-05T11:08:48.544Z,981.90
2022-08-05T11:09:47.562Z,981.99
2022-08-05T11:10:50.363Z,981.97
2022-08-05T11:11:53.613Z,982.02
2022-08-05T11:12:54.352Z,982.00
2022-08-05T11:13:57.884Z,982.02
2022-08-05T11:15:11.564Z,982.02
2022-08-05T11:16:00.120Z,982.05
2022-08-05T11:16:57.177Z,982.08
2022-08-05T11:18:00.451Z,982.09
2022-08-05T11:18:48.468Z,982.14
2022-08-05T11:20:10.165Z,982.18
2022-08-05T11:20:49.213Z,982.12
2022-08-05T11:21:49.511Z,982.15
2022-08-05T11:22:49.929Z,982.18
2022-08-05T11:24:04.590Z,982.26
2022-08-05T11:24:50.787Z,982.30
2022-08-05T11:26:05.273Z,982.35
2022-08-05T11:26:49.753Z,982.36
2022-08-05T11:27:51.656Z,982.39
2022-08-05T11:28:47.338Z,982.40
2022-08-05T11:29:47.294Z,982.45
2022-08-05T11:30:47.303Z,982.45
2022-08-05T11:31:58.661Z,982.47
2022-08-05T11:32:48.285Z,982.51
2022-08-05T11:33:48.034Z,982.57
2022-08-05T11:34:54.038Z,982.59
2022-08-05T11:36:08.180Z,982.55
2022-08-05T11:36:52.766Z,982.59
2022-08-05T11:38:28.524Z,982.63
2022-08-05T11:38:51.268Z,982.62
2022-08-05T11:39:48.306Z,982.65
2022-08-05T11:40:47.215Z,982.63
2022-08-05T11:41:56.329Z,982.72
2022-08-05T11:42:48.183Z,982.76
2022-08-05T11:44:05.874Z,982.72
2022-08-05T11:44:53.695Z,982.71
2022-08-05T11:46:29.865Z,982.79
2022-08-05T11:47:09.283Z,982.79
2022-08-05T11:47:48.713Z,982.80
2022-08-05T11:48:47.108Z,982.81
2022-08-05T11:49:49.882Z,982.79
2022-08-05T11:50:47.085Z,982.87
2022-08-05T11:51:49.229Z,982.90
2022-08-05T11:52:49.628Z,982.98
2022-08-05T11:53:47.035Z,982.99
2022-08-05T11:54:48.489Z,982.96
2022-08-05T11:55:48.448Z,983.01
2022-08-05T11:56:50.332Z,983.02
2022-08-05T11:58:09.677Z,983.03
2022-08-05T11:58:53.055Z,983.08
2022-08-05T11:59:49.642Z,983.07
2022-08-05T12:00:47.075Z,983.07
2022-08-05T12:01:47.937Z,983.16
2022-08-05T12:02:46.980Z,983.14
2022-08-05T12:03:56.105Z,983.11
2022-08-05T12:04:59.200Z,983.17
2022-08-05T12:05:47.900Z,983.20
2022-08-05T12:06:48.699Z,983.19
2022-08-05T12:08:08.221Z,983.26
2022-08-05T12:08:50.088Z,983.26
2022-08-05T12:09:53.033Z,983.30
2022-08-05T12:10:48.653Z,983.33
2022-08-05T12:11:46.829Z,983.41
2022-08-05T12:12:59.224Z,983.43
2022-08-05T12:13:49.871Z,983.46
2022-08-05T12:14:47.305Z,983.48
2022-08-05T12:15:49.938Z,983.46
2022-08-05T12:16:46.796Z,983.57
2022-08-05T12:18:04.425Z,983.56
2022-08-05T12:18:49.623Z,983.54
2022-08-05T12:20:27.017Z,983.54
2022-08-05T12:20:47.750Z,983.60
2022-08-05T12:21:46.728Z,983.60
2022-08-05T12:22:46.728Z,983.59
2022-08-05T12:23:47.729Z,983.60
2022-08-05T12:24:49.575Z,983.57
2022-08-05T12:25:46.690Z,983.58
2022-08-05T12:26:46.679Z,983.62
2022-08-05T12:27:53.106Z,983.64
2022-08-05T12:28:47.662Z,983.68